sensor_id;sensor_type;location;lat;lon;timestamp;pressure;altitude;pressure_sealevel;temperature;humidity
63554;BME280;49699;48.072;7.800;2023-03-03T00:00:20;99715.38;;;-0.52;81.24
63554;BME280;49699;48.072;7.800;2023-03-03T00:02:45;99721.41;;;-0.56;81.42
63554;BME280;49699;48.072;7.800;2023-03-03T00:05:10;99720.59;;;-0.59;81.54
63554;BME280;49699;48.072;7.800;2023-03-03T00:07:42;99722.31;;;-0.64;81.40
63554;BME280;49699;48.072;7.800;2023-03-03T00:10:07;99720.63;;;-0.68;81.49
63554;BME280;49699;48.072;7.800;2023-03-03T00:12:32;99719.00;;;-0.73;81.59
63554;BME280;49699;48.072;7.800;2023-03-03T00:14:58;99718.16;;;-0.76;81.59
63554;BME280;49699;48.072;7.800;2023-03-03T00:17:25;99711.34;;;-0.79;82.14
63554;BME280;49699;48.072;7.800;2023-03-03T00:19:50;99713.94;;;-0.80;82.06
63554;BME280;49699;48.072;7.800;2023-03-03T00:22:29;99716.47;;;-0.79;82.11
63554;BME280;49699;48.072;7.800;2023-03-03T00:24:55;99727.53;;;-0.78;81.67
63554;BME280;49699;48.072;7.800;2023-03-03T00:27:29;99724.13;;;-0.79;81.57
63554;BME280;49699;48.072;7.800;2023-03-03T00:29:56;99727.53;;;-0.78;81.87
63554;BME280;49699;48.072;7.800;2023-03-03T00:32:25;99733.50;;;-0.79;81.59
63554;BME280;49699;48.072;7.800;2023-03-03T00:34:52;99732.66;;;-0.78;81.72
63554;BME280;49699;48.072;7.800;2023-03-03T00:37:31;99727.53;;;-0.78;81.71
63554;BME280;49699;48.072;7.800;2023-03-03T00:42:44;99730.94;;;-0.79;81.94
63554;BME280;49699;48.072;7.800;2023-03-03T00:45:22;99736.06;;;-0.79;81.85
63554;BME280;49699;48.072;7.800;2023-03-03T00:47:49;99733.50;;;-0.78;81.72
63554;BME280;49699;48.072;7.800;2023-03-03T00:50:25;99739.47;;;-0.79;81.33
63554;BME280;49699;48.072;7.800;2023-03-03T00:55:22;99738.63;;;-0.79;81.74
63554;BME280;49699;48.072;7.800;2023-03-03T00:57:47;99732.69;;;-0.83;81.57
63554;BME280;49699;48.072;7.800;2023-03-03T01:00:15;99740.34;;;-0.83;81.61
63554;BME280;49699;48.072;7.800;2023-03-03T01:02:40;99742.03;;;-0.83;81.55
63554;BME280;49699;48.072;7.800;2023-03-03T01:05:05;99744.59;;;-0.83;81.50
63554;BME280;49699;48.072;7.800;2023-03-03T01:07:31;99738.66;;;-0.85;81.98
63554;BME280;49699;48.072;7.800;2023-03-03T01:09:56;99736.09;;;-0.82;81.61
63554;BME280;49699;48.072;7.800;2023-03-03T01:12:22;99739.47;;;-0.82;81.47
63554;BME280;49699;48.072;7.800;2023-03-03T01:14:47;99738.63;;;-0.81;81.91
63554;BME280;49699;48.072;7.800;2023-03-03T01:17:17;99732.66;;;-0.80;81.87
63554;BME280;49699;48.072;7.800;2023-03-03T01:19:42;99738.59;;;-0.76;82.00
63554;BME280;49699;48.072;7.800;2023-03-03T01:22:07;99728.38;;;-0.75;81.70
63554;BME280;49699;48.072;7.800;2023-03-03T01:24:33;99729.22;;;-0.73;81.52
63554;BME280;49699;48.072;7.800;2023-03-03T01:26:58;99721.50;;;-0.71;81.47
63554;BME280;49699;48.072;7.800;2023-03-03T01:29:23;99733.47;;;-0.73;81.38
63554;BME280;49699;48.072;7.800;2023-03-03T01:31:48;99724.13;;;-0.79;81.51
63554;BME280;49699;48.072;7.800;2023-03-03T01:34:14;99725.03;;;-0.84;81.66
63554;BME280;49699;48.072;7.800;2023-03-03T01:36:39;99724.22;;;-0.91;82.03
63554;BME280;49699;48.072;7.800;2023-03-03T01:39:05;99729.38;;;-0.97;82.24
63554;BME280;49699;48.072;7.800;2023-03-03T01:41:30;99721.75;;;-1.03;82.49
63554;BME280;49699;48.072;7.800;2023-03-03T01:43:59;99725.16;;;-1.06;82.45
63554;BME280;49699;48.072;7.800;2023-03-03T01:46:43;99722.59;;;-1.04;82.31
63554;BME280;49699;48.072;7.800;2023-03-03T01:51:52;99724.25;;;-0.97;82.39
63554;BME280;49699;48.072;7.800;2023-03-03T01:54:21;99723.41;;;-0.94;82.26
63554;BME280;49699;48.072;7.800;2023-03-03T01:56:49;99721.69;;;-0.91;82.17
63554;BME280;49699;48.072;7.800;2023-03-03T01:59:21;99719.94;;;-0.89;81.85
63554;BME280;49699;48.072;7.800;2023-03-03T02:01:47;99717.38;;;-0.87;81.93
63554;BME280;49699;48.072;7.800;2023-03-03T02:04:13;99715.66;;;-0.85;81.87
63554;BME280;49699;48.072;7.800;2023-03-03T02:06:40;99711.38;;;-0.83;81.71
63554;BME280;49699;48.072;7.800;2023-03-03T02:11:51;99705.41;;;-0.79;81.65
63554;BME280;49699;48.072;7.800;2023-03-03T02:14:17;99713.06;;;-0.76;81.73
63554;BME280;49699;48.072;7.800;2023-03-03T02:16:42;99711.34;;;-0.76;81.61
63554;BME280;49699;48.072;7.800;2023-03-03T02:19:20;99708.81;;;-0.79;81.56
63554;BME280;49699;48.072;7.800;2023-03-03T02:21:48;99707.13;;;-0.84;81.70
63554;BME280;49699;48.072;7.800;2023-03-03T02:24:21;99701.25;;;-0.91;81.79
63554;BME280;49699;48.072;7.800;2023-03-03T02:26:49;99708.09;;;-0.97;82.30
63554;BME280;49699;48.072;7.800;2023-03-03T02:29:15;99699.59;;;-1.06;82.41
63554;BME280;49699;48.072;7.800;2023-03-03T02:31:40;99706.47;;;-1.12;82.71
63554;BME280;49699;48.072;7.800;2023-03-03T02:34:07;99701.41;;;-1.17;82.72
63554;BME280;49699;48.072;7.800;2023-03-03T02:36:34;99694.59;;;-1.21;82.62
63554;BME280;49699;48.072;7.800;2023-03-03T02:41:26;99693.75;;;-1.24;82.68
63554;BME280;49699;48.072;7.800;2023-03-03T02:46:33;99694.59;;;-1.22;82.91
63554;BME280;49699;48.072;7.800;2023-03-03T02:48:59;99692.03;;;-1.19;82.82
63554;BME280;49699;48.072;7.800;2023-03-03T02:51:24;99693.75;;;-1.20;83.24
63554;BME280;49699;48.072;7.800;2023-03-03T02:53:50;99692.88;;;-1.17;82.76
63554;BME280;49699;48.072;7.800;2023-03-03T02:56:15;99685.22;;;-1.19;82.78
63554;BME280;49699;48.072;7.800;2023-03-03T02:58:41;99682.69;;;-1.22;82.71
63554;BME280;49699;48.072;7.800;2023-03-03T03:01:06;99686.09;;;-1.23;83.17
63554;BME280;49699;48.072;7.800;2023-03-03T03:03:33;99681.84;;;-1.24;83.17
63554;BME280;49699;48.072;7.800;2023-03-03T03:06:00;99690.34;;;-1.22;83.14
63554;BME280;49699;48.072;7.800;2023-03-03T03:08:25;99695.47;;;-1.23;83.08
63554;BME280;49699;48.072;7.800;2023-03-03T03:10:51;99689.50;;;-1.24;83.15
63554;BME280;49699;48.072;7.800;2023-03-03T03:13:16;99697.16;;;-1.24;82.66
63554;BME280;49699;48.072;7.800;2023-03-03T03:15:46;99687.00;;;-1.27;82.72
63554;BME280;49699;48.072;7.800;2023-03-03T03:18:12;99693.84;;;-1.32;82.97
63554;BME280;49699;48.072;7.800;2023-03-03T03:20:38;99696.38;;;-1.32;82.92
63554;BME280;49699;48.072;7.800;2023-03-03T03:23:07;99695.53;;;-1.34;83.00
63554;BME280;49699;48.072;7.800;2023-03-03T03:25:32;99701.50;;;-1.33;82.71
63554;BME280;49699;48.072;7.800;2023-03-03T03:27:57;99701.50;;;-1.32;82.87
63554;BME280;49699;48.072;7.800;2023-03-03T03:30:23;99692.13;;;-1.33;82.92
63554;BME280;49699;48.072;7.800;2023-03-03T03:32:49;99701.50;;;-1.33;82.79
63554;BME280;49699;48.072;7.800;2023-03-03T03:35:15;99701.50;;;-1.36;82.66
63554;BME280;49699;48.072;7.800;2023-03-03T03:37:42;99711.72;;;-1.35;83.18
63554;BME280;49699;48.072;7.800;2023-03-03T03:40:10;99719.38;;;-1.33;83.15
63554;BME280;49699;48.072;7.800;2023-03-03T03:42:35;99715.97;;;-1.32;83.00
63554;BME280;49699;48.072;7.800;2023-03-03T03:45:02;99712.56;;;-1.33;82.79
63554;BME280;49699;48.072;7.800;2023-03-03T03:47:31;99712.56;;;-1.34;83.04
63554;BME280;49699;48.072;7.800;2023-03-03T03:50:03;99717.69;;;-1.37;82.95
63554;BME280;49699;48.072;7.800;2023-03-03T03:52:29;99716.00;;;-1.42;83.14
63554;BME280;49699;48.072;7.800;2023-03-03T03:54:55;99719.44;;;-1.44;83.31
63554;BME280;49699;48.072;7.800;2023-03-03T03:57:20;99724.56;;;-1.47;83.47
63554;BME280;49699;48.072;7.800;2023-03-03T03:59:45;99722.00;;;-1.49;83.07
63554;BME280;49699;48.072;7.800;2023-03-03T04:02:11;99720.31;;;-1.50;83.40
63554;BME280;49699;48.072;7.800;2023-03-03T04:04:36;99727.13;;;-1.52;83.14
63554;BME280;49699;48.072;7.800;2023-03-03T04:07:03;99725.41;;;-1.53;83.37
63554;BME280;49699;48.072;7.800;2023-03-03T04:09:28;99734.78;;;-1.53;83.46
63554;BME280;49699;48.072;7.800;2023-03-03T04:11:54;99733.94;;;-1.55;83.56
63554;BME280;49699;48.072;7.800;2023-03-03T04:14:19;99734.78;;;-1.58;83.33
63554;BME280;49699;48.072;7.800;2023-03-03T04:16:44;99735.63;;;-1.60;83.53
63554;BME280;49699;48.072;7.800;2023-03-03T04:19:10;99733.13;;;-1.63;83.41
63554;BME280;49699;48.072;7.800;2023-03-03T04:21:38;99736.53;;;-1.64;83.45
63554;BME280;49699;48.072;7.800;2023-03-03T04:24:03;99733.13;;;-1.66;83.83
63554;BME280;49699;48.072;7.800;2023-03-03T04:26:29;99734.84;;;-1.65;83.63
63554;BME280;49699;48.072;7.800;2023-03-03T04:28:56;99733.13;;;-1.66;83.88
63554;BME280;49699;48.072;7.800;2023-03-03T04:31:23;99732.28;;;-1.67;83.76
63554;BME280;49699;48.072;7.800;2023-03-03T04:33:50;99739.09;;;-1.67;83.84
63554;BME280;49699;48.072;7.800;2023-03-03T04:36:15;99742.50;;;-1.67;83.71
63554;BME280;49699;48.072;7.800;2023-03-03T04:38:41;99744.19;;;-1.66;83.76
63554;BME280;49699;48.072;7.800;2023-03-03T04:41:06;99734.84;;;-1.68;83.39
63554;BME280;49699;48.072;7.800;2023-03-03T04:43:35;99735.69;;;-1.68;83.34
63554;BME280;49699;48.072;7.800;2023-03-03T04:46:02;99737.38;;;-1.65;83.72
63554;BME280;49699;48.072;7.800;2023-03-03T04:48:29;99737.38;;;-1.64;83.63
63554;BME280;49699;48.072;7.800;2023-03-03T04:50:54;99735.69;;;-1.63;83.45
63554;BME280;49699;48.072;7.800;2023-03-03T04:53:20;99739.91;;;-1.61;83.26
63554;BME280;49699;48.072;7.800;2023-03-03T04:55:45;99740.75;;;-1.57;83.25
63554;BME280;49699;48.072;7.800;2023-03-03T04:58:11;99741.59;;;-1.55;83.15
63554;BME280;49699;48.072;7.800;2023-03-03T05:00:37;99752.63;;;-1.52;83.06
63554;BME280;49699;48.072;7.800;2023-03-03T05:03:04;99747.53;;;-1.47;83.02
63554;BME280;49699;48.072;7.800;2023-03-03T05:05:30;99748.38;;;-1.44;83.11
63554;BME280;49699;48.072;7.800;2023-03-03T05:07:55;99748.31;;;-1.39;83.11
63554;BME280;49699;48.072;7.800;2023-03-03T05:10:20;99745.75;;;-1.37;82.80
63554;BME280;49699;48.072;7.800;2023-03-03T05:12:45;99744.06;;;-1.34;83.19
63554;BME280;49699;48.072;7.800;2023-03-03T05:15:11;99742.34;;;-1.30;83.19
63554;BME280;49699;48.072;7.800;2023-03-03T05:17:36;99744.03;;;-1.26;83.07
63554;BME280;49699;48.072;7.800;2023-03-03T05:20:02;99742.28;;;-1.24;82.59
63554;BME280;49699;48.072;7.800;2023-03-03T05:22:29;99736.31;;;-1.25;82.64
63554;BME280;49699;48.072;7.800;2023-03-03T05:24:54;99735.47;;;-1.25;82.72
63554;BME280;49699;48.072;7.800;2023-03-03T05:27:20;99743.97;;;-1.22;82.60
63554;BME280;49699;48.072;7.800;2023-03-03T05:29:45;99744.84;;;-1.24;82.59
63554;BME280;49699;48.072;7.800;2023-03-03T05:32:10;99740.59;;;-1.24;83.03
63554;BME280;49699;48.072;7.800;2023-03-03T05:34:36;99742.28;;;-1.21;82.65
63554;BME280;49699;48.072;7.800;2023-03-03T05:37:01;99749.09;;;-1.20;82.63
63554;BME280;49699;48.072;7.800;2023-03-03T05:39:28;99746.53;;;-1.20;83.19
63554;BME280;49699;48.072;7.800;2023-03-03T05:41:53;99750.78;;;-1.18;82.79
63554;BME280;49699;48.072;7.800;2023-03-03T05:44:18;99749.06;;;-1.14;82.51
63554;BME280;49699;48.072;7.800;2023-03-03T05:46:43;99755.00;;;-1.12;83.15
63554;BME280;49699;48.072;7.800;2023-03-03T05:49:09;99756.72;;;-1.11;83.00
63554;BME280;49699;48.072;7.800;2023-03-03T05:51:34;99755.84;;;-1.09;82.80
63554;BME280;49699;48.072;7.800;2023-03-03T05:53:59;99761.75;;;-1.05;82.72
63554;BME280;49699;48.072;7.800;2023-03-03T05:56:25;99763.47;;;-1.02;82.87
63554;BME280;49699;48.072;7.800;2023-03-03T05:58:50;99768.56;;;-1.01;82.34
63554;BME280;49699;48.072;7.800;2023-03-03T06:01:16;99776.22;;;-1.04;82.54
63554;BME280;49699;48.072;7.800;2023-03-03T06:03:41;99776.28;;;-1.09;83.01
63554;BME280;49699;48.072;7.800;2023-03-03T06:06:07;99781.41;;;-1.15;82.90
63554;BME280;49699;48.072;7.800;2023-03-03T06:08:33;99772.91;;;-1.20;83.11
63554;BME280;49699;48.072;7.800;2023-03-03T06:10:58;99767.81;;;-1.23;83.11
63554;BME280;49699;48.072;7.800;2023-03-03T06:13:23;99766.13;;;-1.25;83.57
63554;BME280;49699;48.072;7.800;2023-03-03T06:15:49;99768.72;;;-1.27;83.56
63554;BME280;49699;48.072;7.800;2023-03-03T06:18:14;99774.63;;;-1.25;83.48
63554;BME280;49699;48.072;7.800;2023-03-03T06:20:39;99778.88;;;-1.21;83.71
63554;BME280;49699;48.072;7.800;2023-03-03T06:23:05;99782.25;;;-1.16;83.40
63554;BME280;49699;48.072;7.800;2023-03-03T06:25:30;99778.00;;;-1.11;83.31
63554;BME280;49699;48.072;7.800;2023-03-03T06:27:55;99778.84;;;-1.09;82.94
63554;BME280;49699;48.072;7.800;2023-03-03T06:30:20;99783.97;;;-1.15;83.14
63554;BME280;49699;48.072;7.800;2023-03-03T06:32:46;99787.41;;;-1.23;83.40
63554;BME280;49699;48.072;7.800;2023-03-03T06:35:11;99790.84;;;-1.29;83.94
63554;BME280;49699;48.072;7.800;2023-03-03T06:37:37;99792.56;;;-1.28;83.99
63554;BME280;49699;48.072;7.800;2023-03-03T06:40:03;99791.69;;;-1.27;83.95
63554;BME280;49699;48.072;7.800;2023-03-03T06:42:29;99793.41;;;-1.26;84.20
63554;BME280;49699;48.072;7.800;2023-03-03T06:44:54;99793.34;;;-1.21;84.01
63554;BME280;49699;48.072;7.800;2023-03-03T06:47:19;99801.84;;;-1.16;84.07
63554;BME280;49699;48.072;7.800;2023-03-03T06:49:44;99805.25;;;-1.13;83.79
63554;BME280;49699;48.072;7.800;2023-03-03T06:52:11;99799.28;;;-1.09;83.52
63554;BME280;49699;48.072;7.800;2023-03-03T06:54:37;99806.03;;;-1.01;83.50
63554;BME280;49699;48.072;7.800;2023-03-03T06:57:06;99810.25;;;-0.93;83.25
63554;BME280;49699;48.072;7.800;2023-03-03T06:59:37;99806.81;;;-0.87;83.44
63554;BME280;49699;48.072;7.800;2023-03-03T07:02:03;99814.44;;;-0.81;82.82
63554;BME280;49699;48.072;7.800;2023-03-03T07:04:37;99816.13;;;-0.76;82.98
63554;BME280;49699;48.072;7.800;2023-03-03T07:09:41;99816.91;;;-0.66;82.57
63554;BME280;49699;48.072;7.800;2023-03-03T07:12:12;99827.09;;;-0.60;82.32
63554;BME280;49699;48.072;7.800;2023-03-03T07:14:43;99826.22;;;-0.54;82.02
63554;BME280;49699;48.072;7.800;2023-03-03T07:17:10;99824.47;;;-0.52;82.03
63554;BME280;49699;48.072;7.800;2023-03-03T07:19:38;99827.03;;;-0.52;82.32
63554;BME280;49699;48.072;7.800;2023-03-03T07:24:36;99833.81;;;-0.47;82.49
63554;BME280;49699;48.072;7.800;2023-03-03T07:29:30;99828.66;;;-0.36;82.24
63554;BME280;49699;48.072;7.800;2023-03-03T07:31:56;99833.69;;;-0.30;81.70
63554;BME280;49699;48.072;7.800;2023-03-03T07:34:38;99831.97;;;-0.23;81.81
63554;BME280;49699;48.072;7.800;2023-03-03T07:39:48;99835.25;;;-0.09;81.55
63554;BME280;49699;48.072;7.800;2023-03-03T07:42:21;99840.34;;;-0.05;81.42
63554;BME280;49699;48.072;7.800;2023-03-03T07:44:55;99836.03;;;-0.01;81.43
63554;BME280;49699;48.072;7.800;2023-03-03T07:47:25;99841.13;;;0.02;81.40
63554;BME280;49699;48.072;7.800;2023-03-03T07:49:52;99847.06;;;0.04;81.45
63554;BME280;49699;48.072;7.800;2023-03-03T07:54:44;99853.81;;;0.16;81.14
63554;BME280;49699;48.072;7.800;2023-03-03T07:59:35;99859.63;;;0.33;81.04
63554;BME280;49699;48.072;7.800;2023-03-03T08:02:01;99861.25;;;0.40;80.78
63554;BME280;49699;48.072;7.800;2023-03-03T08:06:54;99863.66;;;0.54;80.47
63554;BME280;49699;48.072;7.800;2023-03-03T08:09:28;99856.75;;;0.63;80.32
63554;BME280;49699;48.072;7.800;2023-03-03T08:14:27;99864.25;;;0.79;79.75
63554;BME280;49699;48.072;7.800;2023-03-03T08:16:54;99860.75;;;0.89;79.77
63554;BME280;49699;48.072;7.800;2023-03-03T08:19:19;99868.28;;;0.99;79.40
63554;BME280;49699;48.072;7.800;2023-03-03T08:21:44;99863.00;;;1.10;79.31
63554;BME280;49699;48.072;7.800;2023-03-03T08:24:10;99867.16;;;1.22;79.02
63554;BME280;49699;48.072;7.800;2023-03-03T08:26:36;99874.69;;;1.32;78.67
63554;BME280;49699;48.072;7.800;2023-03-03T08:29:02;99862.66;;;1.37;78.63
63554;BME280;49699;48.072;7.800;2023-03-03T08:31:27;99869.44;;;1.43;78.34
63554;BME280;49699;48.072;7.800;2023-03-03T08:33:53;99855.69;;;1.47;78.37
63554;BME280;49699;48.072;7.800;2023-03-03T08:36:18;99859.03;;;1.54;78.38
63554;BME280;49699;48.072;7.800;2023-03-03T08:38:44;99865.69;;;1.64;78.18
63554;BME280;49699;48.072;7.800;2023-03-03T08:41:10;99859.59;;;1.72;78.17
63554;BME280;49699;48.072;7.800;2023-03-03T08:43:35;99868.00;;;1.82;77.93
63554;BME280;49699;48.072;7.800;2023-03-03T08:46:01;99864.44;;;1.92;77.70
63554;BME280;49699;48.072;7.800;2023-03-03T08:48:29;99863.41;;;2.01;77.63
63554;BME280;49699;48.072;7.800;2023-03-03T08:50:55;99860.75;;;2.08;77.33
63554;BME280;49699;48.072;7.800;2023-03-03T08:53:20;99864.00;;;2.18;77.23
63554;BME280;49699;48.072;7.800;2023-03-03T08:55:46;99869.88;;;2.25;77.21
63554;BME280;49699;48.072;7.800;2023-03-03T08:58:12;99873.22;;;2.30;76.75
63554;BME280;49699;48.072;7.800;2023-03-03T09:00:38;99868.91;;;2.32;76.69
63554;BME280;49699;48.072;7.800;2023-03-03T09:03:03;99868.84;;;2.33;76.62
63554;BME280;49699;48.072;7.800;2023-03-03T09:05:31;99856.78;;;2.38;76.47
63554;BME280;49699;48.072;7.800;2023-03-03T09:07:57;99863.50;;;2.47;76.38
63554;BME280;49699;48.072;7.800;2023-03-03T09:10:24;99866.78;;;2.54;76.03
63554;BME280;49699;48.072;7.800;2023-03-03T09:12:55;99862.41;;;2.60;76.13
63554;BME280;49699;48.072;7.800;2023-03-03T09:15:30;99864.84;;;2.68;76.10
63554;BME280;49699;48.072;7.800;2023-03-03T09:17:56;99862.91;;;2.77;75.87
63554;BME280;49699;48.072;7.800;2023-03-03T09:20:24;99865.28;;;2.88;75.35
63554;BME280;49699;48.072;7.800;2023-03-03T09:22:51;99870.34;;;2.91;75.23
63554;BME280;49699;48.072;7.800;2023-03-03T09:25:30;99867.78;;;2.91;75.03
63554;BME280;49699;48.072;7.800;2023-03-03T09:27:57;99866.00;;;2.95;74.89
63554;BME280;49699;48.072;7.800;2023-03-03T09:32:48;99869.19;;;3.07;74.65
63554;BME280;49699;48.072;7.800;2023-03-03T09:35:25;99873.31;;;3.14;74.64
63554;BME280;49699;48.072;7.800;2023-03-03T09:37:58;99874.91;;;3.22;74.42
63554;BME280;49699;48.072;7.800;2023-03-03T09:43:01;99871.03;;;3.41;73.79
63554;BME280;49699;48.072;7.800;2023-03-03T09:48:31;99870.78;;;3.53;73.30
63554;BME280;49699;48.072;7.800;2023-03-03T09:53:27;99879.03;;;3.67;72.96
63554;BME280;49699;48.072;7.800;2023-03-03T09:59:05;99871.84;;;3.81;72.29
63554;BME280;49699;48.072;7.800;2023-03-03T10:06:10;99874.59;;;4.11;71.51
63554;BME280;49699;48.072;7.800;2023-03-03T10:11:31;99866.72;;;4.15;71.28
63554;BME280;49699;48.072;7.800;2023-03-03T10:14:08;99866.88;;;4.11;70.88
63554;BME280;49699;48.072;7.800;2023-03-03T10:21:47;99869.72;;;4.33;70.86
63554;BME280;49699;48.072;7.800;2023-03-03T10:36:55;99873.69;;;5.09;68.61
63554;BME280;49699;48.072;7.800;2023-03-03T10:39:31;99871.34;;;5.31;67.40
63554;BME280;49699;48.072;7.800;2023-03-03T11:02:21;99868.47;;;6.49;64.03
63554;BME280;49699;48.072;7.800;2023-03-03T11:07:34;99861.25;;;6.34;63.84
63554;BME280;49699;48.072;7.800;2023-03-03T11:10:21;99864.44;;;6.42;63.73
63554;BME280;49699;48.072;7.800;2023-03-03T11:13:04;99858.19;;;6.47;63.54
63554;BME280;49699;48.072;7.800;2023-03-03T11:24:15;99850.25;;;7.47;61.17
63554;BME280;49699;48.072;7.800;2023-03-03T11:26:52;99847.84;;;7.42;60.83
63554;BME280;49699;48.072;7.800;2023-03-03T11:34:14;99851.09;;;7.47;61.00
63554;BME280;49699;48.072;7.800;2023-03-03T11:36:44;99844.53;;;7.60;59.54
63554;BME280;49699;48.072;7.800;2023-03-03T11:39:15;99840.78;;;7.69;59.86
63554;BME280;49699;48.072;7.800;2023-03-03T11:41:41;99843.81;;;7.79;59.29
63554;BME280;49699;48.072;7.800;2023-03-03T11:46:45;99834.34;;;7.99;59.14
63554;BME280;49699;48.072;7.800;2023-03-03T11:49:17;99829.63;;;8.09;57.74
63554;BME280;49699;48.072;7.800;2023-03-03T11:51:52;99825.13;;;7.92;57.66
63554;BME280;49699;48.072;7.800;2023-03-03T11:54:24;99822.59;;;7.91;58.08
63554;BME280;49699;48.072;7.800;2023-03-03T11:56:52;99820.66;;;7.96;57.73
63554;BME280;49699;48.072;7.800;2023-03-03T11:59:39;99829.16;;;7.99;57.98
63554;BME280;49699;48.072;7.800;2023-03-03T12:04:39;99834.59;;;7.72;58.10
63554;BME280;49699;48.072;7.800;2023-03-03T12:07:18;99823.16;;;7.55;58.90
63554;BME280;49699;48.072;7.800;2023-03-03T12:09:51;99824.97;;;7.31;59.40
63554;BME280;49699;48.072;7.800;2023-03-03T12:12:20;99822.09;;;7.16;60.04
63554;BME280;49699;48.072;7.800;2023-03-03T12:24:57;99815.72;;;7.01;61.50
63554;BME280;49699;48.072;7.800;2023-03-03T12:27:29;99812.66;;;7.15;61.34
63554;BME280;49699;48.072;7.800;2023-03-03T12:37:53;99791.09;;;7.80;59.53
63554;BME280;49699;48.072;7.800;2023-03-03T12:40:24;99791.88;;;7.82;59.30
63554;BME280;49699;48.072;7.800;2023-03-03T12:43:05;99786.97;;;7.96;58.69
63554;BME280;49699;48.072;7.800;2023-03-03T12:45:42;99785.66;;;8.06;57.86
63554;BME280;49699;48.072;7.800;2023-03-03T12:48:16;99781.09;;;8.13;57.55
63554;BME280;49699;48.072;7.800;2023-03-03T12:50:54;99790.59;;;8.12;57.47
63554;BME280;49699;48.072;7.800;2023-03-03T12:55:59;99779.34;;;8.54;57.03
63554;BME280;49699;48.072;7.800;2023-03-03T13:01:01;99777.19;;;8.82;56.25
63554;BME280;49699;48.072;7.800;2023-03-03T13:11:03;99779.84;;;8.62;56.95
63554;BME280;49699;48.072;7.800;2023-03-03T13:13:38;99783.34;;;8.61;56.77
63554;BME280;49699;48.072;7.800;2023-03-03T13:16:28;99783.94;;;8.67;57.27
63554;BME280;49699;48.072;7.800;2023-03-03T13:18:54;99784.19;;;8.61;57.23
63554;BME280;49699;48.072;7.800;2023-03-03T13:21:23;99780.91;;;8.58;57.20
63554;BME280;49699;48.072;7.800;2023-03-03T13:27:00;99784.63;;;8.71;57.08
63554;BME280;49699;48.072;7.800;2023-03-03T13:29:36;99782.81;;;8.73;56.93
63554;BME280;49699;48.072;7.800;2023-03-03T13:34:36;99779.47;;;8.51;57.66
63554;BME280;49699;48.072;7.800;2023-03-03T13:42:48;99770.97;;;8.27;58.39
63554;BME280;49699;48.072;7.800;2023-03-03T13:45:21;99773.91;;;8.19;58.65
63554;BME280;49699;48.072;7.800;2023-03-03T13:50:19;99763.66;;;8.16;58.67
63554;BME280;49699;48.072;7.800;2023-03-03T13:57:44;99768.66;;;8.21;58.93
63554;BME280;49699;48.072;7.800;2023-03-03T14:00:23;99760.25;;;8.36;58.43
63554;BME280;49699;48.072;7.800;2023-03-03T14:02:58;99753.38;;;8.35;58.11
63554;BME280;49699;48.072;7.800;2023-03-03T14:08:21;99746.84;;;8.25;58.24
63554;BME280;49699;48.072;7.800;2023-03-03T14:13:43;99740.19;;;8.19;57.78
63554;BME280;49699;48.072;7.800;2023-03-03T14:18:56;99744.28;;;8.05;57.99
63554;BME280;49699;48.072;7.800;2023-03-03T14:21:26;99741.94;;;7.98;58.13
63554;BME280;49699;48.072;7.800;2023-03-03T14:24:00;99740.84;;;8.04;58.25
63554;BME280;49699;48.072;7.800;2023-03-03T14:26:29;99738.69;;;8.14;58.05
63554;BME280;49699;48.072;7.800;2023-03-03T14:29:15;99740.56;;;8.10;57.78
63554;BME280;49699;48.072;7.800;2023-03-03T14:31:43;99738.94;;;8.08;57.70
63554;BME280;49699;48.072;7.800;2023-03-03T14:36:56;99738.22;;;8.45;57.03
63554;BME280;49699;48.072;7.800;2023-03-03T14:41:54;99738.56;;;8.57;56.57
63554;BME280;49699;48.072;7.800;2023-03-03T14:47:09;99733.22;;;8.79;54.83
63554;BME280;49699;48.072;7.800;2023-03-03T14:49:37;99732.22;;;8.63;54.90
63554;BME280;49699;48.072;7.800;2023-03-03T14:54:44;99733.31;;;8.59;55.83
63554;BME280;49699;48.072;7.800;2023-03-03T14:59:39;99723.59;;;8.62;55.96
63554;BME280;49699;48.072;7.800;2023-03-03T15:02:27;99726.56;;;8.74;55.79
63554;BME280;49699;48.072;7.800;2023-03-03T15:04:50;99718.41;;;8.81;56.02
63554;BME280;49699;48.072;7.800;2023-03-03T15:07:36;99718.78;;;8.92;55.49
63554;BME280;49699;48.072;7.800;2023-03-03T15:10:03;99719.31;;;8.99;55.08
63554;BME280;49699;48.072;7.800;2023-03-03T15:20:41;99721.38;;;8.92;54.91
63554;BME280;49699;48.072;7.800;2023-03-03T15:22:49;99719.00;;;8.88;55.07
63554;BME280;49699;48.072;7.800;2023-03-03T15:25:23;99724.31;;;8.85;55.13
63554;BME280;49699;48.072;7.800;2023-03-03T15:37:58;99722.63;;;8.84;54.94
63554;BME280;49699;48.072;7.800;2023-03-03T15:40:27;99721.94;;;8.80;55.50
63554;BME280;49699;48.072;7.800;2023-03-03T15:43:02;99724.53;;;8.80;55.50
63554;BME280;49699;48.072;7.800;2023-03-03T15:45:33;99721.59;;;8.88;55.23
63554;BME280;49699;48.072;7.800;2023-03-03T15:48:05;99722.50;;;9.05;55.28
63554;BME280;49699;48.072;7.800;2023-03-03T15:53:08;99725.00;;;9.26;54.39
63554;BME280;49699;48.072;7.800;2023-03-03T15:55:41;99726.97;;;9.21;54.64
63554;BME280;49699;48.072;7.800;2023-03-03T16:03:11;99722.34;;;9.09;55.18
63554;BME280;49699;48.072;7.800;2023-03-03T16:08:08;99721.56;;;9.07;55.34
63554;BME280;49699;48.072;7.800;2023-03-03T16:10:41;99724.38;;;9.02;55.70
63554;BME280;49699;48.072;7.800;2023-03-03T16:13:19;99726.50;;;8.94;55.74
63554;BME280;49699;48.072;7.800;2023-03-03T16:15:47;99721.66;;;8.86;56.45
63554;BME280;49699;48.072;7.800;2023-03-03T16:23:25;99734.75;;;8.64;57.06
63554;BME280;49699;48.072;7.800;2023-03-03T16:26:05;99734.28;;;8.56;57.14
63554;BME280;49699;48.072;7.800;2023-03-03T16:28:34;99736.41;;;8.47;57.66
63554;BME280;49699;48.072;7.800;2023-03-03T16:33:39;99744.19;;;8.26;58.31
63554;BME280;49699;48.072;7.800;2023-03-03T16:36:12;99738.56;;;8.17;58.57
63554;BME280;49699;48.072;7.800;2023-03-03T16:38:44;99743.16;;;8.10;58.78
63554;BME280;49699;48.072;7.800;2023-03-03T16:44:11;99751.66;;;7.93;59.24
63554;BME280;49699;48.072;7.800;2023-03-03T16:46:40;99758.91;;;7.85;59.74
63554;BME280;49699;48.072;7.800;2023-03-03T16:54:19;99763.78;;;7.71;60.03
63554;BME280;49699;48.072;7.800;2023-03-03T16:59:37;99767.69;;;7.61;60.83
63554;BME280;49699;48.072;7.800;2023-03-03T17:04:53;99778.28;;;7.55;60.77
63554;BME280;49699;48.072;7.800;2023-03-03T17:07:33;99776.69;;;7.52;60.86